sensor_id;sensor_type;location;lat;lon;timestamp;pressure;altitude;pressure_sealevel;temperature;humidity
49657;BME280;71194;38.900;-77.124;2023-09-19T00:01:28;99818.80;;;23.02;43.59
49657;BME280;71194;38.900;-77.124;2023-09-19T00:03:56;99823.81;;;23.28;43.49
49657;BME280;71194;38.900;-77.124;2023-09-19T00:06:23;99825.72;;;23.25;43.37
49657;BME280;71194;38.900;-77.124;2023-09-19T00:08:52;99829.86;;;23.16;43.64
49657;BME280;71194;38.900;-77.124;2023-09-19T00:11:20;99832.18;;;22.94;43.12
49657;BME280;71194;38.900;-77.124;2023-09-19T00:13:48;99839.58;;;23.13;43.26
49657;BME280;71194;38.900;-77.124;2023-09-19T00:16:16;99843.82;;;22.83;43.72
49657;BME280;71194;38.900;-77.124;2023-09-19T00:18:43;99843.48;;;22.95;43.83
49657;BME280;71194;38.900;-77.124;2023-09-19T00:21:12;99844.19;;;22.91;44.10
49657;BME280;71194;38.900;-77.124;2023-09-19T00:23:40;99850.03;;;22.98;43.65
49657;BME280;71194;38.900;-77.124;2023-09-19T00:26:08;99852.35;;;22.84;43.79
49657;BME280;71194;38.900;-77.124;2023-09-19T00:28:36;99852.05;;;23.02;43.87
49657;BME280;71194;38.900;-77.124;2023-09-19T00:31:04;99855.61;;;22.65;44.11
49657;BME280;71194;38.900;-77.124;2023-09-19T00:33:32;99859.30;;;22.83;44.13
49657;BME280;71194;38.900;-77.124;2023-09-19T00:36:00;99865.06;;;22.55;44.74
49657;BME280;71194;38.900;-77.124;2023-09-19T00:38:28;99874.50;;;22.70;45.08
49657;BME280;71194;38.900;-77.124;2023-09-19T00:40:56;99876.70;;;22.39;45.06
49657;BME280;71194;38.900;-77.124;2023-09-19T00:43:24;99878.21;;;22.36;45.23
49657;BME280;71194;38.900;-77.124;2023-09-19T00:45:54;99882.34;;;22.82;45.15
49657;BME280;71194;38.900;-77.124;2023-09-19T00:48:22;99888.03;;;22.78;44.61
49657;BME280;71194;38.900;-77.124;2023-09-19T00:50:51;99890.37;;;22.56;44.18
49657;BME280;71194;38.900;-77.124;2023-09-19T00:53:21;99890.27;;;22.61;44.27
49657;BME280;71194;38.900;-77.124;2023-09-19T00:55:51;99897.37;;;22.59;44.63
49657;BME280;71194;38.900;-77.124;2023-09-19T00:58:19;99903.29;;;22.67;44.53
49657;BME280;71194;38.900;-77.124;2023-09-19T01:00:48;99908.60;;;22.53;44.97
49657;BME280;71194;38.900;-77.124;2023-09-19T01:03:17;99909.23;;;22.48;45.16
49657;BME280;71194;38.900;-77.124;2023-09-19T01:05:45;99908.59;;;22.41;45.37
49657;BME280;71194;38.900;-77.124;2023-09-19T01:08:13;99912.77;;;22.45;44.92
49657;BME280;71194;38.900;-77.124;2023-09-19T01:10:48;99918.74;;;22.22;44.82
49657;BME280;71194;38.900;-77.124;2023-09-19T01:13:26;99919.91;;;22.34;44.92
49657;BME280;71194;38.900;-77.124;2023-09-19T01:16:01;99918.62;;;22.33;44.70
49657;BME280;71194;38.900;-77.124;2023-09-19T01:18:37;99924.63;;;22.30;44.53
49657;BME280;71194;38.900;-77.124;2023-09-19T01:21:14;99927.55;;;22.35;44.23
49657;BME280;71194;38.900;-77.124;2023-09-19T01:24:07;99921.25;;;22.30;44.33
49657;BME280;71194;38.900;-77.124;2023-09-19T01:27:00;99924.51;;;22.34;44.09
49657;BME280;71194;38.900;-77.124;2023-09-19T01:29:38;99930.99;;;22.32;44.00
49657;BME280;71194;38.900;-77.124;2023-09-19T01:32:08;99934.44;;;22.29;43.93
49657;BME280;71194;38.900;-77.124;2023-09-19T01:34:55;99941.39;;;22.22;43.94
49657;BME280;71194;38.900;-77.124;2023-09-19T01:37:23;99948.60;;;22.21;43.86
49657;BME280;71194;38.900;-77.124;2023-09-19T01:39:53;99946.96;;;22.24;43.71
49657;BME280;71194;38.900;-77.124;2023-09-19T01:42:31;99952.56;;;22.22;43.75
49657;BME280;71194;38.900;-77.124;2023-09-19T01:45:08;99956.40;;;22.24;43.73
49657;BME280;71194;38.900;-77.124;2023-09-19T01:47:46;99956.45;;;22.14;43.87
49657;BME280;71194;38.900;-77.124;2023-09-19T01:50:24;99960.37;;;22.12;44.00
49657;BME280;71194;38.900;-77.124;2023-09-19T01:52:59;99960.52;;;22.06;44.04
49657;BME280;71194;38.900;-77.124;2023-09-19T01:55:28;99966.74;;;22.04;44.00
49657;BME280;71194;38.900;-77.124;2023-09-19T01:58:04;99965.86;;;22.03;43.99
49657;BME280;71194;38.900;-77.124;2023-09-19T02:00:37;99965.99;;;21.94;44.07
49657;BME280;71194;38.900;-77.124;2023-09-19T02:03:09;99966.91;;;21.89;44.20
49657;BME280;71194;38.900;-77.124;2023-09-19T02:05:38;99963.63;;;21.86;44.32
49657;BME280;71194;38.900;-77.124;2023-09-19T02:08:06;99966.70;;;21.77;44.54
49657;BME280;71194;38.900;-77.124;2023-09-19T02:10:34;99969.39;;;21.97;44.61
49657;BME280;71194;38.900;-77.124;2023-09-19T02:13:01;99972.05;;;21.60;44.66
49657;BME280;71194;38.900;-77.124;2023-09-19T02:15:29;99974.41;;;21.84;44.59
49657;BME280;71194;38.900;-77.124;2023-09-19T02:17:57;99977.44;;;21.60;44.62
49657;BME280;71194;38.900;-77.124;2023-09-19T02:20:25;99977.87;;;21.82;44.65
49657;BME280;71194;38.900;-77.124;2023-09-19T02:22:53;99981.31;;;21.56;44.72
49657;BME280;71194;38.900;-77.124;2023-09-19T02:25:21;99984.49;;;22.04;44.86
49657;BME280;71194;38.900;-77.124;2023-09-19T02:27:49;99985.06;;;21.48;44.91
49657;BME280;71194;38.900;-77.124;2023-09-19T02:30:17;99989.07;;;21.37;44.98
49657;BME280;71194;38.900;-77.124;2023-09-19T02:32:45;99992.55;;;21.79;45.10
49657;BME280;71194;38.900;-77.124;2023-09-19T02:35:13;99994.56;;;21.78;45.11
49657;BME280;71194;38.900;-77.124;2023-09-19T02:37:42;100002.44;;;21.54;45.20
49657;BME280;71194;38.900;-77.124;2023-09-19T02:40:10;100000.66;;;21.63;45.13
49657;BME280;71194;38.900;-77.124;2023-09-19T02:42:38;100006.52;;;21.82;45.20
49657;BME280;71194;38.900;-77.124;2023-09-19T02:45:07;100011.20;;;21.52;45.40
49657;BME280;71194;38.900;-77.124;2023-09-19T02:47:35;100011.73;;;21.50;45.41
49657;BME280;71194;38.900;-77.124;2023-09-19T02:50:03;100015.02;;;21.20;45.59
49657;BME280;71194;38.900;-77.124;2023-09-19T02:52:30;100015.27;;;21.46;45.54
49657;BME280;71194;38.900;-77.124;2023-09-19T02:54:58;100019.80;;;21.38;45.59
49657;BME280;71194;38.900;-77.124;2023-09-19T02:57:26;100019.80;;;21.04;45.77
49657;BME280;71194;38.900;-77.124;2023-09-19T02:59:54;100027.28;;;21.23;45.89
49657;BME280;71194;38.900;-77.124;2023-09-19T03:02:22;100032.16;;;21.43;45.96
49657;BME280;71194;38.900;-77.124;2023-09-19T03:04:50;100031.13;;;21.16;46.00
49657;BME280;71194;38.900;-77.124;2023-09-19T03:07:18;100032.65;;;21.14;46.04
49657;BME280;71194;38.900;-77.124;2023-09-19T03:09:45;100035.03;;;21.34;46.18
49657;BME280;71194;38.900;-77.124;2023-09-19T03:12:13;100030.93;;;21.14;46.38
49657;BME280;71194;38.900;-77.124;2023-09-19T03:14:41;100031.01;;;21.32;46.69
49657;BME280;71194;38.900;-77.124;2023-09-19T03:17:09;100037.04;;;21.26;46.80
49657;BME280;71194;38.900;-77.124;2023-09-19T03:19:37;100036.43;;;20.98;46.75
49657;BME280;71194;38.900;-77.124;2023-09-19T03:22:05;100036.14;;;21.20;46.84
49657;BME280;71194;38.900;-77.124;2023-09-19T03:24:33;100036.74;;;21.19;46.90
49657;BME280;71194;38.900;-77.124;2023-09-19T03:27:01;100036.41;;;21.10;46.96
49657;BME280;71194;38.900;-77.124;2023-09-19T03:29:28;100041.47;;;21.08;46.99
49657;BME280;71194;38.900;-77.124;2023-09-19T03:31:56;100044.94;;;20.99;47.03
49657;BME280;71194;38.900;-77.124;2023-09-19T03:34:23;100048.74;;;20.98;47.07
49657;BME280;71194;38.900;-77.124;2023-09-19T03:36:51;100053.15;;;21.03;46.96
49657;BME280;71194;38.900;-77.124;2023-09-19T03:39:19;100049.54;;;21.00;47.08
49657;BME280;71194;38.900;-77.124;2023-09-19T03:41:47;100057.09;;;20.99;47.17
49657;BME280;71194;38.900;-77.124;2023-09-19T03:44:15;100059.46;;;20.95;47.24
49657;BME280;71194;38.900;-77.124;2023-09-19T03:46:43;100058.89;;;21.15;47.42
49657;BME280;71194;38.900;-77.124;2023-09-19T03:49:11;100063.80;;;20.83;47.54
49657;BME280;71194;38.900;-77.124;2023-09-19T03:51:39;100061.71;;;20.87;47.46
49657;BME280;71194;38.900;-77.124;2023-09-19T03:54:07;100070.37;;;20.78;47.68
49657;BME280;71194;38.900;-77.124;2023-09-19T03:56:35;100068.28;;;20.77;47.65
49657;BME280;71194;38.900;-77.124;2023-09-19T03:59:03;100068.49;;;20.71;47.75
49657;BME280;71194;38.900;-77.124;2023-09-19T04:01:31;100070.13;;;20.76;47.83
49657;BME280;71194;38.900;-77.124;2023-09-19T04:03:59;100067.68;;;20.72;47.98
49657;BME280;71194;38.900;-77.124;2023-09-19T04:06:27;100072.03;;;20.69;48.20
49657;BME280;71194;38.900;-77.124;2023-09-19T04:08:55;100076.95;;;20.62;48.60
49657;BME280;71194;38.900;-77.124;2023-09-19T04:11:22;100079.42;;;20.60;48.67
49657;BME280;71194;38.900;-77.124;2023-09-19T04:13:50;100081.31;;;20.57;48.69
49657;BME280;71194;38.900;-77.124;2023-09-19T04:16:18;100080.07;;;20.55;48.70
49657;BME280;71194;38.900;-77.124;2023-09-19T04:18:46;100082.84;;;20.50;48.84
49657;BME280;71194;38.900;-77.124;2023-09-19T04:21:14;100080.08;;;20.44;49.02
49657;BME280;71194;38.900;-77.124;2023-09-19T04:23:42;100081.82;;;20.64;49.19
49657;BME280;71194;38.900;-77.124;2023-09-19T04:26:10;100088.52;;;20.47;49.20
49657;BME280;71194;38.900;-77.124;2023-09-19T04:28:38;100090.44;;;20.72;49.34
49657;BME280;71194;38.900;-77.124;2023-09-19T04:31:06;100088.74;;;20.30;49.85
49657;BME280;71194;38.900;-77.124;2023-09-19T04:33:34;100087.45;;;20.31;49.96
49657;BME280;71194;38.900;-77.124;2023-09-19T04:36:02;100085.34;;;20.52;50.19
49657;BME280;71194;38.900;-77.124;2023-09-19T04:38:30;100095.03;;;20.63;50.33
49657;BME280;71194;38.900;-77.124;2023-09-19T04:40:58;100097.40;;;20.13;50.38
49657;BME280;71194;38.900;-77.124;2023-09-19T04:43:26;100098.50;;;20.40;50.54
49657;BME280;71194;38.900;-77.124;2023-09-19T04:45:55;100103.54;;;20.41;50.60
49657;BME280;71194;38.900;-77.124;2023-09-19T04:48:22;100100.85;;;20.50;50.60
49657;BME280;71194;38.900;-77.124;2023-09-19T04:50:50;100107.07;;;20.34;50.61
49657;BME280;71194;38.900;-77.124;2023-09-19T04:53:18;100108.38;;;20.55;50.56
49657;BME280;71194;38.900;-77.124;2023-09-19T04:55:49;100114.47;;;20.51;50.57
49657;BME280;71194;38.900;-77.124;2023-09-19T04:58:17;100114.67;;;19.98;50.46
49657;BME280;71194;38.900;-77.124;2023-09-19T05:00:45;100112.93;;;19.94;50.44
49657;BME280;71194;38.900;-77.124;2023-09-19T05:03:13;100113.24;;;20.14;50.48
49657;BME280;71194;38.900;-77.124;2023-09-19T05:05:41;100117.21;;;20.28;50.64
49657;BME280;71194;38.900;-77.124;2023-09-19T05:08:09;100118.14;;;20.28;50.68
49657;BME280;71194;38.900;-77.124;2023-09-19T05:10:37;100119.92;;;19.75;50.81
49657;BME280;71194;38.900;-77.124;2023-09-19T05:13:05;100119.53;;;20.21;50.83
49657;BME280;71194;38.900;-77.124;2023-09-19T05:15:32;100123.29;;;19.93;50.93
49657;BME280;71194;38.900;-77.124;2023-09-19T05:18:00;100121.68;;;19.92;50.99
49657;BME280;71194;38.900;-77.124;2023-09-19T05:20:28;100125.48;;;20.16;51.14
49657;BME280;71194;38.900;-77.124;2023-09-19T05:23:00;100129.31;;;20.15;51.26
49657;BME280;71194;38.900;-77.124;2023-09-19T05:25:29;100132.94;;;19.81;51.30
49657;BME280;71194;38.900;-77.124;2023-09-19T05:27:58;100137.43;;;20.08;51.23
49657;BME280;71194;38.900;-77.124;2023-09-19T05:30:26;100139.64;;;20.04;51.30
49657;BME280;71194;38.900;-77.124;2023-09-19T05:32:55;100137.76;;;20.09;51.49
49657;BME280;71194;38.900;-77.124;2023-09-19T05:35:23;100137.90;;;20.00;51.82
49657;BME280;71194;38.900;-77.124;2023-09-19T05:37:51;100138.38;;;19.96;51.77
49657;BME280;71194;38.900;-77.124;2023-09-19T05:40:19;100144.94;;;19.90;51.89
49657;BME280;71194;38.900;-77.124;2023-09-19T05:42:47;100144.08;;;19.61;51.91
49657;BME280;71194;38.900;-77.124;2023-09-19T05:45:15;100144.54;;;19.84;51.92
49657;BME280;71194;38.900;-77.124;2023-09-19T05:47:43;100142.70;;;19.88;51.95
49657;BME280;71194;38.900;-77.124;2023-09-19T05:50:12;100142.59;;;19.85;51.88
49657;BME280;71194;38.900;-77.124;2023-09-19T05:52:40;100141.37;;;19.84;51.92
49657;BME280;71194;38.900;-77.124;2023-09-19T05:55:09;100142.55;;;19.91;51.85
49657;BME280;71194;38.900;-77.124;2023-09-19T05:57:37;100141.92;;;19.90;51.64
49657;BME280;71194;38.900;-77.124;2023-09-19T06:00:05;100141.90;;;19.83;51.87
49657;BME280;71194;38.900;-77.124;2023-09-19T06:02:33;100137.81;;;19.82;51.80
49657;BME280;71194;38.900;-77.124;2023-09-19T06:05:01;100138.21;;;19.64;51.74
49657;BME280;71194;38.900;-77.124;2023-09-19T06:07:29;100134.89;;;19.80;51.82
49657;BME280;71194;38.900;-77.124;2023-09-19T06:09:56;100134.96;;;19.79;51.90
49657;BME280;71194;38.900;-77.124;2023-09-19T06:12:24;100134.23;;;19.65;52.10
49657;BME280;71194;38.900;-77.124;2023-09-19T06:14:52;100133.71;;;19.65;52.06
49657;BME280;71194;38.900;-77.124;2023-09-19T06:17:20;100137.38;;;19.77;51.74
49657;BME280;71194;38.900;-77.124;2023-09-19T06:19:48;100138.87;;;19.58;51.57
49657;BME280;71194;38.900;-77.124;2023-09-19T06:22:49;100143.08;;;19.69;51.93
49657;BME280;71194;38.900;-77.124;2023-09-19T06:25:17;100143.75;;;19.24;51.97
49657;BME280;71194;38.900;-77.124;2023-09-19T06:27:45;100145.99;;;19.66;51.95
49657;BME280;71194;38.900;-77.124;2023-09-19T06:30:13;100141.46;;;19.59;52.10
49657;BME280;71194;38.900;-77.124;2023-09-19T06:32:41;100140.83;;;19.53;52.28
49657;BME280;71194;38.900;-77.124;2023-09-19T06:35:09;100144.48;;;19.53;52.21
49657;BME280;71194;38.900;-77.124;2023-09-19T06:37:37;100148.58;;;19.42;52.37
49657;BME280;71194;38.900;-77.124;2023-09-19T06:40:07;100148.00;;;19.59;52.38
49657;BME280;71194;38.900;-77.124;2023-09-19T06:42:35;100147.66;;;19.38;52.26
49657;BME280;71194;38.900;-77.124;2023-09-19T06:45:04;100142.82;;;19.33;52.41
49657;BME280;71194;38.900;-77.124;2023-09-19T06:47:33;100140.24;;;19.27;52.59
49657;BME280;71194;38.900;-77.124;2023-09-19T06:50:01;100141.20;;;19.39;52.61
49657;BME280;71194;38.900;-77.124;2023-09-19T06:52:29;100140.91;;;19.34;52.51
49657;BME280;71194;38.900;-77.124;2023-09-19T06:54:57;100139.83;;;19.34;52.47
49657;BME280;71194;38.900;-77.124;2023-09-19T06:57:25;100143.17;;;19.15;52.29
49657;BME280;71194;38.900;-77.124;2023-09-19T06:59:53;100141.40;;;19.12;52.33
49657;BME280;71194;38.900;-77.124;2023-09-19T07:02:21;100138.74;;;19.26;52.34
49657;BME280;71194;38.900;-77.124;2023-09-19T07:04:48;100138.00;;;19.36;52.03
49657;BME280;71194;38.900;-77.124;2023-09-19T07:07:17;100138.53;;;19.24;52.15
49657;BME280;71194;38.900;-77.124;2023-09-19T07:09:45;100137.29;;;19.20;52.29
49657;BME280;71194;38.900;-77.124;2023-09-19T07:12:12;100133.45;;;19.24;52.26
49657;BME280;71194;38.900;-77.124;2023-09-19T07:14:40;100132.80;;;19.25;52.16
49657;BME280;71194;38.900;-77.124;2023-09-19T07:17:08;100133.94;;;19.26;52.26
49657;BME280;71194;38.900;-77.124;2023-09-19T07:19:36;100135.67;;;19.03;52.48
49657;BME280;71194;38.900;-77.124;2023-09-19T07:22:04;100139.90;;;19.25;52.41
49657;BME280;71194;38.900;-77.124;2023-09-19T07:24:32;100139.87;;;19.00;52.29
49657;BME280;71194;38.900;-77.124;2023-09-19T07:27:00;100140.90;;;19.19;52.35
49657;BME280;71194;38.900;-77.124;2023-09-19T07:29:28;100144.55;;;19.14;52.44
49657;BME280;71194;38.900;-77.124;2023-09-19T07:31:56;100147.48;;;18.80;52.53
49657;BME280;71194;38.900;-77.124;2023-09-19T07:34:23;100146.03;;;19.03;52.38
49657;BME280;71194;38.900;-77.124;2023-09-19T07:36:51;100144.05;;;18.98;52.34
49657;BME280;71194;38.900;-77.124;2023-09-19T07:39:18;100143.82;;;18.98;52.38
49657;BME280;71194;38.900;-77.124;2023-09-19T07:41:46;100145.54;;;19.05;52.40
49657;BME280;71194;38.900;-77.124;2023-09-19T07:44:14;100146.90;;;18.92;52.54
49657;BME280;71194;38.900;-77.124;2023-09-19T07:46:43;100145.09;;;18.79;52.64
49657;BME280;71194;38.900;-77.124;2023-09-19T07:49:10;100147.75;;;19.11;52.70
49657;BME280;71194;38.900;-77.124;2023-09-19T07:51:38;100149.27;;;18.87;52.66
49657;BME280;71194;38.900;-77.124;2023-09-19T07:54:06;100148.18;;;18.88;52.74
49657;BME280;71194;38.900;-77.124;2023-09-19T07:56:34;100148.37;;;18.88;52.60
49657;BME280;71194;38.900;-77.124;2023-09-19T07:59:03;100145.37;;;18.86;52.64
49657;BME280;71194;38.900;-77.124;2023-09-19T08:01:31;100146.50;;;18.83;52.63
49657;BME280;71194;38.900;-77.124;2023-09-19T08:03:59;100148.52;;;18.83;52.67
49657;BME280;71194;38.900;-77.124;2023-09-19T08:06:29;100147.45;;;18.85;52.70
49657;BME280;71194;38.900;-77.124;2023-09-19T08:08:56;100148.32;;;18.84;52.92
49657;BME280;71194;38.900;-77.124;2023-09-19T08:11:24;100145.78;;;19.00;53.27
49657;BME280;71194;38.900;-77.124;2023-09-19T08:13:52;100147.39;;;18.92;53.66
49657;BME280;71194;38.900;-77.124;2023-09-19T08:16:20;100150.32;;;18.87;53.83
49657;BME280;71194;38.900;-77.124;2023-09-19T08:18:48;100155.14;;;18.66;53.87
49657;BME280;71194;38.900;-77.124;2023-09-19T08:21:15;100154.91;;;19.00;53.90
49657;BME280;71194;38.900;-77.124;2023-09-19T08:23:43;100160.42;;;18.66;53.63
49657;BME280;71194;38.900;-77.124;2023-09-19T08:26:11;100165.16;;;18.85;53.57
49657;BME280;71194;38.900;-77.124;2023-09-19T08:28:39;100165.43;;;18.71;54.06
49657;BME280;71194;38.900;-77.124;2023-09-19T08:31:08;100168.18;;;18.55;54.34
49657;BME280;71194;38.900;-77.124;2023-09-19T08:33:36;100173.68;;;18.12;54.53
49657;BME280;71194;38.900;-77.124;2023-09-19T08:36:06;100179.41;;;18.40;54.45
49657;BME280;71194;38.900;-77.124;2023-09-19T08:38:35;100185.76;;;18.47;54.17
49657;BME280;71194;38.900;-77.124;2023-09-19T08:41:08;100184.93;;;18.56;53.88
49657;BME280;71194;38.900;-77.124;2023-09-19T08:43:36;100183.10;;;18.47;53.99
49657;BME280;71194;38.900;-77.124;2023-09-19T08:46:10;100180.57;;;18.36;54.29
49657;BME280;71194;38.900;-77.124;2023-09-19T08:48:41;100184.79;;;18.22;54.73
49657;BME280;71194;38.900;-77.124;2023-09-19T08:51:18;100184.55;;;18.21;54.82
49657;BME280;71194;38.900;-77.124;2023-09-19T08:53:51;100183.59;;;18.65;55.01
49657;BME280;71194;38.900;-77.124;2023-09-19T08:56:19;100183.14;;;18.14;54.97
49657;BME280;71194;38.900;-77.124;2023-09-19T08:58:53;100191.76;;;18.16;55.00
49657;BME280;71194;38.900;-77.124;2023-09-19T09:01:21;100187.24;;;18.09;55.02
49657;BME280;71194;38.900;-77.124;2023-09-19T09:03:51;100186.24;;;18.49;55.19
49657;BME280;71194;38.900;-77.124;2023-09-19T09:06:21;100186.00;;;18.48;55.12
49657;BME280;71194;38.900;-77.124;2023-09-19T09:08:50;100195.43;;;18.45;55.09
49657;BME280;71194;38.900;-77.124;2023-09-19T09:11:19;100193.21;;;18.00;54.95
49657;BME280;71194;38.900;-77.124;2023-09-19T09:13:47;100190.37;;;17.99;54.94
49657;BME280;71194;38.900;-77.124;2023-09-19T09:16:15;100189.56;;;18.25;54.86
49657;BME280;71194;38.900;-77.124;2023-09-19T09:18:43;100191.88;;;18.06;54.78
49657;BME280;71194;38.900;-77.124;2023-09-19T09:21:11;100188.90;;;18.57;54.75
49657;BME280;71194;38.900;-77.124;2023-09-19T09:23:39;100197.65;;;18.10;54.65
49657;BME280;71194;38.900;-77.124;2023-09-19T09:26:07;100202.35;;;18.59;54.61
49657;BME280;71194;38.900;-77.124;2023-09-19T09:28:35;100202.65;;;18.34;54.58
49657;BME280;71194;38.900;-77.124;2023-09-19T09:31:03;100206.62;;;18.24;54.33
49657;BME280;71194;38.900;-77.124;2023-09-19T09:33:31;100209.35;;;18.52;54.19
49657;BME280;71194;38.900;-77.124;2023-09-19T09:36:00;100216.29;;;17.94;54.31
49657;BME280;71194;38.900;-77.124;2023-09-19T09:38:30;100221.69;;;18.16;54.51
49657;BME280;71194;38.900;-77.124;2023-09-19T09:41:10;100218.88;;;18.30;54.46
49657;BME280;71194;38.900;-77.124;2023-09-19T09:43:39;100221.64;;;18.08;54.37
49657;BME280;71194;38.900;-77.124;2023-09-19T09:46:15;100222.31;;;18.60;54.29
49657;BME280;71194;38.900;-77.124;2023-09-19T09:48:44;100226.66;;;18.11;54.14
49657;BME280;71194;38.900;-77.124;2023-09-19T09:51:12;100228.91;;;18.07;54.24
49657;BME280;71194;38.900;-77.124;2023-09-19T09:53:40;100235.92;;;18.11;54.11
49657;BME280;71194;38.900;-77.124;2023-09-19T09:56:18;100232.39;;;18.10;53.98
49657;BME280;71194;38.900;-77.124;2023-09-19T09:58:51;100229.37;;;18.40;53.83
49657;BME280;71194;38.900;-77.124;2023-09-19T10:01:18;100236.53;;;18.08;53.78
49657;BME280;71194;38.900;-77.124;2023-09-19T10:03:47;100237.43;;;18.59;53.81
49657;BME280;71194;38.900;-77.124;2023-09-19T10:06:15;100240.49;;;18.15;53.62
49657;BME280;71194;38.900;-77.124;2023-09-19T10:08:58;100241.00;;;18.19;53.53
49657;BME280;71194;38.900;-77.124;2023-09-19T10:11:26;100243.87;;;18.22;53.59
49657;BME280;71194;38.900;-77.124;2023-09-19T10:13:53;100248.60;;;18.26;53.27
49657;BME280;71194;38.900;-77.124;2023-09-19T10:16:21;100250.19;;;18.21;53.36
49657;BME280;71194;38.900;-77.124;2023-09-19T10:18:52;100252.87;;;18.13;53.47
49657;BME280;71194;38.900;-77.124;2023-09-19T10:21:22;100258.22;;;18.34;53.54
49657;BME280;71194;38.900;-77.124;2023-09-19T10:23:51;100261.00;;;18.16;53.50
49657;BME280;71194;38.900;-77.124;2023-09-19T10:26:21;100265.01;;;18.12;53.62
49657;BME280;71194;38.900;-77.124;2023-09-19T10:28:50;100272.19;;;18.62;53.59
49657;BME280;71194;38.900;-77.124;2023-09-19T10:31:20;100274.51;;;18.06;53.90
49657;BME280;71194;38.900;-77.124;2023-09-19T10:33:50;100277.34;;;18.06;53.98
49657;BME280;71194;38.900;-77.124;2023-09-19T10:36:18;100278.31;;;18.01;53.97
49657;BME280;71194;38.900;-77.124;2023-09-19T10:38:55;100278.64;;;18.01;54.15
49657;BME280;71194;38.900;-77.124;2023-09-19T10:41:25;100281.41;;;18.34;54.10
49657;BME280;71194;38.900;-77.124;2023-09-19T10:43:57;100285.60;;;18.20;54.00
49657;BME280;71194;38.900;-77.124;2023-09-19T10:46:26;100289.44;;;17.82;54.26
49657;BME280;71194;38.900;-77.124;2023-09-19T10:48:54;100292.65;;;18.36;54.31
49657;BME280;71194;38.900;-77.124;2023-09-19T10:51:28;100301.06;;;17.77;54.44
49657;BME280;71194;38.900;-77.124;2023-09-19T10:54:02;100303.78;;;17.74;54.46
49657;BME280;71194;38.900;-77.124;2023-09-19T10:56:36;100307.55;;;17.78;54.42
49657;BME280;71194;38.900;-77.124;2023-09-19T10:59:08;100312.67;;;18.05;54.28
49657;BME280;71194;38.900;-77.124;2023-09-19T11:01:45;100315.79;;;18.42;54.08
49657;BME280;71194;38.900;-77.124;2023-09-19T11:04:30;100316.88;;;18.28;53.88
49657;BME280;71194;38.900;-77.124;2023-09-19T11:07:07;100323.44;;;18.14;53.91
49657;BME280;71194;38.900;-77.124;2023-09-19T11:09:52;100328.90;;;18.15;53.69
49657;BME280;71194;38.900;-77.124;2023-09-19T11:12:55;100336.52;;;18.43;53.57
49657;BME280;71194;38.900;-77.124;2023-09-19T11:16:28;100345.96;;;18.21;53.87
49657;BME280;71194;38.900;-77.124;2023-09-19T11:18:56;100354.74;;;18.26;53.96
49657;BME280;71194;38.900;-77.124;2023-09-19T11:21:56;100361.07;;;18.56;53.87
49657;BME280;71194;38.900;-77.124;2023-09-19T11:24:32;100363.92;;;18.40;53.70
49657;BME280;71194;38.900;-77.124;2023-09-19T11:27:15;100366.47;;;18.50;53.49
49657;BME280;71194;38.900;-77.124;2023-09-19T11:29:44;100371.70;;;18.69;53.29
49657;BME280;71194;38.900;-77.124;2023-09-19T11:32:12;100376.82;;;18.68;53.06
49657;BME280;71194;38.900;-77.124;2023-09-19T11:34:45;100380.40;;;18.82;52.68
49657;BME280;71194;38.900;-77.124;2023-09-19T11:38:11;100385.36;;;19.04;52.89
49657;BME280;71194;38.900;-77.124;2023-09-19T11:40:39;100388.73;;;18.93;52.62
49657;BME280;71194;38.900;-77.124;2023-09-19T11:43:44;100395.94;;;18.86;52.30
49657;BME280;71194;38.900;-77.124;2023-09-19T11:46:13;100400.07;;;18.99;51.96
49657;BME280;71194;38.900;-77.124;2023-09-19T11:48:41;100400.98;;;18.83;51.95
49657;BME280;71194;38.900;-77.124;2023-09-19T11:51:15;100400.29;;;18.56;52.07
49657;BME280;71194;38.900;-77.124;2023-09-19T11:53:44;100406.63;;;18.96;51.90
49657;BME280;71194;38.900;-77.124;2023-09-19T11:56:12;100407.46;;;19.02;51.88
49657;BME280;71194;38.900;-77.124;2023-09-19T11:58:41;100409.06;;;19.21;51.53
49657;BME280;71194;38.900;-77.124;2023-09-19T12:01:13;100410.46;;;19.11;51.66
49657;BME280;71194;38.900;-77.124;2023-09-19T12:03:45;100419.19;;;19.28;51.36
49657;BME280;71194;38.900;-77.124;2023-09-19T12:06:14;100421.82;;;19.39;51.16
49657;BME280;71194;38.900;-77.124;2023-09-19T12:08:43;100426.25;;;19.25;51.01
49657;BME280;71194;38.900;-77.124;2023-09-19T12:11:15;100428.90;;;19.54;50.99
49657;BME280;71194;38.900;-77.124;2023-09-19T12:13:44;100430.00;;;19.30;50.98
49657;BME280;71194;38.900;-77.124;2023-09-19T12:16:14;100428.86;;;19.32;50.93
49657;BME280;71194;38.900;-77.124;2023-09-19T12:18:43;100430.27;;;19.58;50.55
49657;BME280;71194;38.900;-77.124;2023-09-19T12:21:28;100434.51;;;19.72;50.41
49657;BME280;71194;38.900;-77.124;2023-09-19T12:24:07;100434.28;;;20.01;50.15
49657;BME280;71194;38.900;-77.124;2023-09-19T12:26:43;100434.03;;;19.85;50.06
49657;BME280;71194;38.900;-77.124;2023-09-19T12:29:15;100436.27;;;19.89;49.76
49657;BME280;71194;38.900;-77.124;2023-09-19T12:31:59;100434.13;;;19.80;49.60
49657;BME280;71194;38.900;-77.124;2023-09-19T12:34:29;100434.01;;;19.76;49.67
49657;BME280;71194;38.900;-77.124;2023-09-19T12:37:07;100435.98;;;19.89;49.72
49657;BME280;71194;38.900;-77.124;2023-09-19T12:39:35;100434.40;;;20.15;49.44
49657;BME280;71194;38.900;-77.124;2023-09-19T12:42:03;100434.46;;;20.31;49.27
49657;BME280;71194;38.900;-77.124;2023-09-19T12:44:32;100437.37;;;20.25;49.23
49657;BME280;71194;38.900;-77.124;2023-09-19T12:47:00;100436.23;;;20.17;48.81
49657;BME280;71194;38.900;-77.124;2023-09-19T12:49:28;100444.02;;;20.47;48.43